Airfield :
LOGIN :

Register | Disclaimer

   EN    FR    IT 

 










Legend :    VFR   Marginal VFR   IFR   Intensive IFR   Very Intensive IFR
Visi :
Ceiling :
>= 8 km
>= 3000ft
5 to 8 km
1000 to 3000 ft
1500m to 5 km
500 to 1000 ft
800 to 1500m
200 to 500 ft
< 800m
< 200 ft
Symbols :   Thunderstorms  Fog  Heavy snow  Heavy precipitations  Wind > 20 kt
SIGMETs :     Misc.  Thunderstorms  Icing  Turbulence  Mountain Waves  Volcanic Ashes







- Airport Elevation : 52 ft
- IATA code : RNN


EKRN - Bornholm Ronne

CURRENT METAR :
  • 221950Z AUTO 06006KT 9999NDV FEW027/// M03/M08 Q1029

EXPIRED METARs :
  • 221920Z AUTO 06009KT 9999NDV FEW059/// M03/M07 Q1029
  • 221850Z AUTO 07007KT 9999NDV OVC057/// M03/M07 Q1028
  • 221820Z AUTO 06006KT 9999NDV BKN058/// M03/M07 Q1028
  • 221750Z AUTO 06006KT 9999NDV OVC059/// M03/M07 Q1028
  • 221720Z AUTO 05004KT 9999NDV OVC058/// M02/M07 Q1028

TAF TAF EKRN
Valid from the 22 at 18:00 until the 22 at 23:00 UTC


221721Z 2218/2223 07005KT 9999 FEW020 BKN040
No reported NOTAMs for that airfield.



MET'MAP, your aeronautical weather chart ! - Copyright ORBIFLY December 2007 - Disclaimer

ORBIFLY MET'MAP TEAM :

Programming & Development : Alexandra Zaïnal
Concept & Development : Baudouin d'Aumeries
Co-Development & Prog : Marc-Olivier Méhu
Technical & hardware support : Manuel Goepfert

Contact : metmap@orbifly.com




SOURCES & CREDITS :

   NOAA